Time;durP1;ratioP1;P1;durP2;ratioP2;P2;SDS_P1;SDS_P2;PMS_P1;PMS_P2;Temp;Humidity;BMP_temperature;BMP_pressure;BME280_temperature;BME280_humidity;BME280_pressure;Samples;Min_cycle;Max_cycle;Signal;HPM_P1;HPM_P2
2022/06/05 00:04:38;;;;;;;6.03;5.53;;;22.80;37.70;;;;;;10547091;28;20801;-73
2022/06/05 00:09:51;;;;;;;6.40;5.80;;;22.70;38.80;;;;;;10548246;27;20303;-73
2022/06/05 00:14:54;;;;;;;6.27;5.77;;;22.60;38.80;;;;;;10546657;27;20714;-73
2022/06/05 00:19:58;;;;;;;6.40;6.00;;;22.50;38.30;;;;;;10547811;28;20236;-73
2022/06/05 00:25:02;;;;;;;6.13;5.63;;;22.50;38.30;;;;;;10543473;27;20250;-73
2022/06/05 00:30:10;;;;;;;6.37;5.77;;;22.40;38.60;;;;;;10547554;27;20230;-73
2022/06/05 00:35:16;;;;;;;6.17;5.67;;;22.30;38.50;;;;;;10541605;27;20777;-73
2022/06/05 00:40:45;;;;;;;5.80;5.17;;;22.20;38.40;;;;;;10546193;27;20220;-74
2022/06/05 00:45:49;;;;;;;5.57;5.17;;;22.20;38.40;;;;;;10551513;28;20238;-73
2022/06/05 00:50:52;;;;;;;5.83;5.40;;;22.20;38.40;;;;;;10546067;28;20277;-73
2022/06/05 00:55:57;;;;;;;5.73;5.33;;;22.20;38.40;;;;;;10537770;28;20231;-73
2022/06/05 01:01:00;;;;;;;5.10;4.70;;;22.10;38.40;;;;;;10547210;28;20255;-73
2022/06/05 01:06:03;;;;;;;5.00;4.70;;;22.10;38.40;;;;;;10539948;28;20224;-74
2022/06/05 01:11:16;;;;;;;6.47;5.20;;;22.10;38.40;;;;;;10545971;28;20234;-73
2022/06/05 01:16:25;;;;;;;5.80;5.00;;;22.10;39.00;;;;;;10554004;28;21086;-74
2022/06/05 01:21:57;;;;;;;5.40;4.90;;;22.00;38.60;;;;;;10550233;28;20226;-73
2022/06/05 01:27:06;;;;;;;4.17;3.87;;;22.00;38.30;;;;;;10555827;28;20227;-73
2022/06/05 01:32:12;;;;;;;5.03;4.73;;;21.90;38.20;;;;;;10556784;28;20686;-73
2022/06/05 01:37:21;;;;;;;4.87;4.57;;;21.80;38.10;;;;;;10554203;27;20211;-73
2022/06/05 01:42:29;;;;;;;4.97;4.57;;;21.80;38.60;;;;;;10514559;28;20233;-73
2022/06/05 01:47:36;;;;;;;5.17;4.77;;;21.80;38.90;;;;;;10512805;28;20236;-73
2022/06/05 01:52:45;;;;;;;5.20;4.80;;;21.80;38.80;;;;;;10520835;28;20232;-73
2022/06/05 01:57:51;;;;;;;5.63;5.23;;;21.70;38.90;;;;;;10506598;28;20262;-73
2022/06/05 02:03:00;;;;;;;5.00;4.60;;;21.70;38.90;;;;;;10508410;28;20234;-73
2022/06/05 02:08:09;;;;;;;6.10;4.40;;;21.60;38.90;;;;;;10517271;28;20235;-74
2022/06/05 02:13:14;;;;;;;5.13;4.63;;;21.60;39.00;;;;;;10514204;28;20228;-73
2022/06/05 02:18:17;;;;;;;5.33;4.93;;;21.60;38.90;;;;;;10514379;28;20951;-74
2022/06/05 02:23:24;;;;;;;5.10;4.73;;;21.50;38.70;;;;;;10513613;28;20220;-73
2022/06/05 02:28:29;;;;;;;4.93;4.53;;;21.50;38.90;;;;;;10510687;28;20224;-73
2022/06/05 02:33:42;;;;;;;5.33;4.93;;;21.40;38.80;;;;;;10515384;28;20720;-74
2022/06/05 02:38:57;;;;;;;5.33;4.63;;;21.40;40.30;;;;;;10505285;28;20303;-73
2022/06/05 02:44:34;;;;;;;5.37;4.97;;;21.30;39.70;;;;;;10512046;28;20812;-74
2022/06/05 02:49:42;;;;;;;4.80;4.50;;;21.30;39.70;;;;;;10516586;28;20224;-74
2022/06/05 02:54:50;;;;;;;5.90;5.13;;;21.20;39.50;;;;;;10512731;28;20282;-74
2022/06/05 02:59:55;;;;;;;5.97;5.50;;;21.20;39.80;;;;;;10509325;28;20226;-73
2022/06/05 03:04:58;;;;;;;5.07;4.67;;;21.10;39.60;;;;;;10509116;28;20228;-74
2022/06/05 03:10:01;;;;;;;5.40;5.00;;;21.10;39.30;;;;;;10506767;28;20228;-74
2022/06/05 03:15:07;;;;;;;4.80;4.50;;;21.10;39.50;;;;;;10512820;28;20228;-74
2022/06/05 03:20:13;;;;;;;5.03;4.53;;;21.00;40.00;;;;;;10507863;28;20298;-74
2022/06/05 03:25:18;;;;;;;4.97;4.67;;;21.00;40.00;;;;;;10509790;28;20688;-73
2022/06/05 03:30:23;;;;;;;5.40;5.00;;;21.00;40.20;;;;;;10506933;28;20234;-74
2022/06/05 03:35:26;;;;;;;5.77;4.80;;;20.90;40.10;;;;;;10507980;28;20220;-74
2022/06/05 03:40:29;;;;;;;5.30;4.90;;;20.90;39.90;;;;;;10509413;28;20239;-74
2022/06/05 03:45:34;;;;;;;5.53;5.13;;;20.90;40.10;;;;;;10510527;28;20240;-74
2022/06/05 03:50:39;;;;;;;5.80;5.40;;;20.90;40.50;;;;;;10504223;28;20232;-74
2022/06/05 03:55:42;;;;;;;5.37;4.97;;;20.90;40.60;;;;;;10504212;28;20241;-74
2022/06/05 04:00:47;;;;;;;5.50;5.10;;;20.90;40.30;;;;;;10503687;28;20228;-74
2022/06/05 04:05:50;;;;;;;5.40;5.00;;;20.90;40.80;;;;;;10507019;28;20225;-74
2022/06/05 04:10:53;;;;;;;5.97;5.57;;;20.90;40.50;;;;;;10510111;28;20219;-74
2022/06/05 04:15:58;;;;;;;5.87;5.37;;;20.90;40.50;;;;;;10502678;28;20224;-74
2022/06/05 04:21:07;;;;;;;5.47;5.17;;;20.90;41.10;;;;;;10506386;28;20715;-74
2022/06/05 04:26:12;;;;;;;6.20;5.80;;;20.80;41.60;;;;;;10512725;28;20975;-74
2022/06/05 04:31:23;;;;;;;6.50;6.00;;;20.80;41.20;;;;;;10513649;28;20281;-74
2022/06/05 04:36:27;;;;;;;5.90;5.40;;;20.80;41.90;;;;;;10504523;28;20227;-73
2022/06/05 04:41:31;;;;;;;6.20;5.80;;;20.80;41.30;;;;;;10511950;28;20243;-74
2022/06/05 04:46:36;;;;;;;6.13;5.73;;;20.80;41.30;;;;;;10499534;28;20879;-74
2022/06/05 04:51:40;;;;;;;6.20;5.70;;;20.80;41.90;;;;;;10506379;28;20307;-74
2022/06/05 04:56:43;;;;;;;6.67;6.17;;;20.90;41.60;;;;;;10498178;28;20236;-74
2022/06/05 05:01:48;;;;;;;6.50;6.00;;;20.90;41.90;;;;;;10500124;28;20228;-74
2022/06/05 05:06:51;;;;;;;7.10;6.60;;;20.90;42.70;;;;;;10499491;28;20220;-74
2022/06/05 05:11:54;;;;;;;6.53;6.03;;;21.00;42.40;;;;;;10509465;28;20314;-74
2022/06/05 05:16:59;;;;;;;6.40;6.00;;;21.00;42.30;;;;;;10502860;28;20249;-74
2022/06/05 05:22:02;;;;;;;7.40;6.90;;;21.10;43.00;;;;;;10505809;28;20311;-74
2022/06/05 05:27:05;;;;;;;7.17;6.67;;;21.20;42.70;;;;;;10501187;28;20232;-73
2022/06/05 05:32:11;;;;;;;7.60;6.90;;;21.30;42.90;;;;;;10501880;28;20223;-73
2022/06/05 05:37:14;;;;;;;7.10;6.60;;;21.40;43.60;;;;;;10506932;28;20230;-73
2022/06/05 05:42:17;;;;;;;6.30;5.90;;;21.50;43.00;;;;;;10504342;28;20231;-73
2022/06/05 05:47:24;;;;;;;6.90;6.40;;;21.60;43.00;;;;;;10505975;28;20231;-73
2022/06/05 05:52:28;;;;;;;6.70;6.20;;;21.80;43.40;;;;;;10504619;28;20234;-73
2022/06/05 05:57:31;;;;;;;6.67;6.17;;;22.00;43.20;;;;;;10496852;28;20228;-73
2022/06/05 06:02:37;;;;;;;5.90;5.50;;;22.20;43.10;;;;;;10519830;28;20580;-73
2022/06/05 06:07:40;;;;;;;6.30;5.87;;;22.40;43.50;;;;;;10513360;28;20958;-73
2022/06/05 06:12:43;;;;;;;5.77;5.37;;;22.50;42.80;;;;;;10517170;28;20322;-73
2022/06/05 06:17:48;;;;;;;6.57;6.17;;;22.70;42.70;;;;;;10516943;28;20219;-73
2022/06/05 06:22:51;;;;;;;6.60;6.13;;;22.80;42.50;;;;;;10514978;28;20228;-73
2022/06/05 06:27:54;;;;;;;6.20;5.73;;;22.90;42.20;;;;;;10514298;28;20711;-73
2022/06/05 06:32:59;;;;;;;7.23;6.73;;;23.00;42.00;;;;;;10511456;28;20228;-73
2022/06/05 06:38:02;;;;;;;7.27;6.80;;;23.10;42.10;;;;;;10509369;28;20224;-73
2022/06/05 06:43:05;;;;;;;6.90;6.40;;;23.20;42.00;;;;;;10509715;28;20215;-73
2022/06/05 06:48:10;;;;;;;6.73;6.13;;;23.30;42.00;;;;;;10506066;28;20223;-73
2022/06/05 06:53:13;;;;;;;7.27;6.77;;;23.40;42.30;;;;;;10509405;28;20228;-73
2022/06/05 06:58:17;;;;;;;6.70;6.30;;;23.60;42.40;;;;;;10505902;28;20231;-73
2022/06/05 07:03:21;;;;;;;7.43;6.83;;;23.70;42.10;;;;;;10509692;28;20223;-73
2022/06/05 07:08:25;;;;;;;7.87;7.30;;;23.80;41.70;;;;;;10507152;28;20220;-73
2022/06/05 07:13:28;;;;;;;6.90;6.30;;;24.00;41.60;;;;;;10507734;28;20582;-73
2022/06/05 07:18:33;;;;;;;7.70;7.10;;;24.10;41.60;;;;;;10505597;28;20238;-73
2022/06/05 07:23:36;;;;;;;8.17;7.47;;;24.20;41.50;;;;;;10502168;28;20855;-73
2022/06/05 07:28:39;;;;;;;7.57;7.07;;;24.30;41.20;;;;;;10507613;28;20221;-73
2022/06/05 07:33:44;;;;;;;6.87;6.47;;;24.40;41.20;;;;;;10505424;28;20311;-73
2022/06/05 07:38:49;;;;;;;8.10;7.50;;;24.50;40.70;;;;;;10508106;28;20215;-73
2022/06/05 07:43:52;;;;;;;8.03;7.40;;;24.50;40.50;;;;;;10514762;28;20597;-73
2022/06/05 07:48:57;;;;;;;7.90;7.30;;;24.60;40.50;;;;;;10504761;28;20716;-74
2022/06/05 07:59:21;;;;;;;8.43;7.73;;;24.40;40.60;;;;;;10518655;28;20260;-73
2022/06/05 08:04:32;;;;;;;7.53;7.03;;;24.30;41.00;;;;;;10510428;28;20285;-74
2022/06/05 08:09:36;;;;;;;7.93;7.33;;;24.10;41.70;;;;;;10519629;28;20233;-73
2022/06/05 08:14:42;;;;;;;9.70;8.90;;;23.90;41.50;;;;;;10509935;28;20228;-74
2022/06/05 08:19:47;;;;;;;8.80;8.03;;;23.70;42.60;;;;;;10515822;28;20234;-74
2022/06/05 08:24:52;;;;;;;9.67;8.77;;;23.40;42.20;;;;;;10508960;28;20236;-74
2022/06/05 08:29:57;;;;;;;8.60;7.90;;;23.10;42.40;;;;;;10506454;28;20321;-73
2022/06/05 08:35:03;;;;;;;9.57;8.77;;;22.90;43.10;;;;;;10516461;28;20239;-73
2022/06/05 08:45:40;;;;;;;9.43;8.60;;;22.60;43.80;;;;;;10510183;28;20234;-73
2022/06/05 08:50:48;;;;;;;9.43;8.73;;;22.50;44.40;;;;;;10508471;28;20228;-73
2022/06/05 08:55:54;;;;;;;9.63;8.73;;;22.50;44.50;;;;;;10510933;28;20223;-73
2022/06/05 09:01:02;;;;;;;9.93;9.17;;;22.50;44.50;;;;;;10512157;28;20223;-73
2022/06/05 09:06:12;;;;;;;9.90;9.23;;;22.40;44.50;;;;;;10516480;28;20228;-73
2022/06/05 09:11:25;;;;;;;10.40;9.60;;;22.40;45.50;;;;;;10514506;28;20238;-73
2022/06/05 09:16:31;;;;;;;11.00;10.20;;;22.50;44.90;;;;;;10545524;28;20218;-73
2022/06/05 09:21:42;;;;;;;11.30;10.40;;;22.50;45.40;;;;;;10547458;28;20226;-74
2022/06/05 09:26:49;;;;;;;12.90;11.93;;;22.50;46.50;;;;;;10553733;28;20258;-74
2022/06/05 09:32:32;;;;;;;13.60;12.67;;;22.60;45.70;;;;;;10556322;28;20223;-73
2022/06/05 09:37:43;;;;;;;13.67;12.57;;;22.80;47.20;;;;;;10548069;28;20707;-73
2022/06/05 09:42:56;;;;;;;14.57;13.50;;;22.90;47.60;;;;;;10553871;28;20238;-73
2022/06/05 09:48:14;;;;;;;13.27;12.17;;;23.10;46.50;;;;;;10555040;27;20230;-74
2022/06/05 09:53:24;;;;;;;13.17;12.13;;;23.40;46.30;;;;;;10539078;28;20306;-73
2022/06/05 09:59:07;;;;;;;11.80;10.93;;;23.60;47.00;;;;;;10518781;28;20219;-73
2022/06/05 10:04:10;;;;;;;10.77;10.07;;;23.80;45.70;;;;;;10476937;27;20227;-73
2022/06/05 10:09:17;;;;;;;11.27;10.40;;;23.90;45.30;;;;;;10548878;28;20250;-73
2022/06/05 10:14:31;;;;;;;10.20;9.50;;;24.10;45.30;;;;;;10551447;28;20226;-73
2022/06/05 10:19:55;;;;;;;10.40;9.60;;;24.30;45.10;;;;;;10548616;27;20233;-73
2022/06/05 10:25:14;;;;;;;9.73;8.93;;;24.50;45.40;;;;;;10564593;27;20225;-74
2022/06/05 10:30:19;;;;;;;9.30;8.70;;;24.70;45.00;;;;;;10549253;28;20215;-73
2022/06/05 10:35:26;;;;;;;9.10;8.40;;;24.90;44.70;;;;;;10556734;28;20231;-74
2022/06/05 10:40:41;;;;;;;8.80;8.20;;;25.10;44.30;;;;;;10558635;28;20234;-74
2022/06/05 10:45:50;;;;;;;8.60;8.00;;;25.30;43.80;;;;;;10555344;28;20230;-73
2022/06/05 10:50:58;;;;;;;8.10;7.60;;;25.60;43.60;;;;;;10552545;28;20227;-73
2022/06/05 10:56:19;;;;;;;8.53;7.93;;;25.80;43.20;;;;;;10549314;28;21212;-73
2022/06/05 11:01:36;;;;;;;7.90;7.40;;;25.90;43.10;;;;;;10558684;27;20223;-73
2022/06/05 11:06:50;;;;;;;7.73;7.13;;;26.00;42.60;;;;;;10553681;27;20233;-73
2022/06/05 11:17:33;;;;;;;7.93;7.33;;;26.30;41.80;;;;;;10547052;28;20226;-73
2022/06/05 11:22:47;;;;;;;7.93;7.43;;;26.40;41.80;;;;;;10550841;28;20594;-73
2022/06/05 11:28:03;;;;;;;7.43;6.93;;;26.50;41.90;;;;;;10545578;28;20249;-73
2022/06/05 11:33:13;;;;;;;7.57;6.97;;;26.70;42.80;;;;;;10551818;28;20317;-73
2022/06/05 11:38:26;;;;;;;7.50;7.00;;;26.80;42.10;;;;;;10542804;28;20223;-73
2022/06/05 11:43:33;;;;;;;7.77;7.13;;;27.00;41.30;;;;;;10556419;28;20223;-73
2022/06/05 11:49:06;;;;;;;7.63;7.07;;;27.10;41.10;;;;;;10547070;28;20743;-73
2022/06/05 11:54:17;;;;;;;8.03;7.43;;;27.20;41.30;;;;;;10540537;27;20219;-73
2022/06/05 11:59:30;;;;;;;7.70;7.20;;;27.30;41.20;;;;;;10547126;27;20223;-73
2022/06/05 12:04:45;;;;;;;7.50;7.00;;;27.40;40.70;;;;;;10512203;28;20596;-73
2022/06/05 12:09:52;;;;;;;8.10;7.60;;;27.50;40.30;;;;;;10512926;28;20256;-73
2022/06/05 12:15:07;;;;;;;7.57;7.00;;;27.60;40.20;;;;;;10509522;28;20239;-73
2022/06/05 12:20:18;;;;;;;7.87;7.17;;;27.70;39.70;;;;;;10531040;28;20565;-73
2022/06/05 12:25:25;;;;;;;7.90;7.20;;;27.80;39.90;;;;;;10551488;28;20234;-73
2022/06/05 12:30:34;;;;;;;7.27;6.67;;;27.90;39.50;;;;;;10539358;28;20226;-73
2022/06/05 12:35:40;;;;;;;8.00;7.50;;;27.90;39.60;;;;;;10549321;27;20231;-73
2022/06/05 12:40:52;;;;;;;7.07;6.67;;;27.90;39.70;;;;;;10545718;28;20237;-74
2022/06/05 12:46:00;;;;;;;7.23;6.63;;;27.90;39.80;;;;;;10551114;28;20245;-73
2022/06/05 12:51:11;;;;;;;8.13;7.53;;;28.00;39.30;;;;;;10542207;28;20234;-73
2022/06/05 12:56:27;;;;;;;8.17;7.67;;;28.00;39.30;;;;;;10540199;28;20236;-74
2022/06/05 13:01:37;;;;;;;8.27;7.67;;;28.00;38.80;;;;;;10544557;27;20686;-73
2022/06/05 13:06:51;;;;;;;7.67;7.17;;;28.00;38.90;;;;;;10549750;28;20223;-75
2022/06/05 13:12:00;;;;;;;7.87;7.37;;;28.00;38.80;;;;;;10547873;28;20231;-75
2022/06/05 13:17:18;;;;;;;7.90;7.30;;;28.00;38.80;;;;;;10534672;28;20215;-75
2022/06/05 13:22:32;;;;;;;7.50;7.00;;;28.00;38.60;;;;;;10536313;28;21922;-75
2022/06/05 13:27:49;;;;;;;8.13;7.53;;;28.00;38.60;;;;;;10545347;28;20223;-75
2022/06/05 13:33:04;;;;;;;7.90;7.27;;;28.10;38.30;;;;;;10503894;28;20782;-76
2022/06/05 13:38:14;;;;;;;7.90;7.30;;;28.10;38.50;;;;;;10538615;28;20593;-75
2022/06/05 13:43:20;;;;;;;8.33;7.73;;;28.20;38.60;;;;;;10544655;28;20372;-75
2022/06/05 13:48:32;;;;;;;7.93;7.43;;;28.30;38.40;;;;;;10540484;28;20277;-75
2022/06/05 13:53:38;;;;;;;8.47;7.77;;;28.40;38.10;;;;;;10546348;28;20236;-75
2022/06/05 13:58:50;;;;;;;8.37;7.67;;;28.40;37.80;;;;;;10543751;28;20269;-75
2022/06/05 14:03:57;;;;;;;8.23;7.67;;;28.40;38.20;;;;;;10541449;28;20220;-75
2022/06/05 14:09:03;;;;;;;8.00;7.40;;;28.30;37.90;;;;;;10548496;28;20666;-75
2022/06/05 14:14:07;;;;;;;8.67;7.80;;;28.20;37.90;;;;;;10552271;28;20215;-76
2022/06/05 14:19:22;;;;;;;9.03;8.30;;;28.10;37.70;;;;;;10551472;28;20224;-76
2022/06/05 14:24:28;;;;;;;7.87;7.27;;;27.90;37.20;;;;;;10552437;28;20301;-76
2022/06/05 14:29:39;;;;;;;8.00;7.50;;;27.70;37.90;;;;;;10561483;28;20215;-75
2022/06/05 14:34:47;;;;;;;8.27;7.67;;;27.50;38.00;;;;;;10567931;27;20227;-76
2022/06/05 14:39:52;;;;;;;7.70;7.20;;;27.40;38.60;;;;;;10549832;27;20735;-75
2022/06/05 14:45:01;;;;;;;8.10;7.40;;;27.30;38.90;;;;;;10561654;27;20226;-75
2022/06/05 14:50:15;;;;;;;8.73;8.03;;;27.20;39.20;;;;;;10544019;27;20298;-76
2022/06/05 15:00:56;;;;;;;9.90;9.10;;;27.10;39.60;;;;;;10553354;28;20230;-79
2022/06/05 15:06:02;;;;;;;10.10;9.10;;;27.00;40.10;;;;;;10561066;28;20227;-79
2022/06/05 15:11:11;;;;;;;10.50;9.70;;;26.80;39.70;;;;;;10558313;28;20215;-79
2022/06/05 15:16:20;;;;;;;9.27;8.47;;;26.50;39.90;;;;;;10553509;28;20532;-79
2022/06/05 15:21:34;;;;;;;8.67;7.93;;;26.20;40.80;;;;;;10555500;28;20777;-78
2022/06/05 15:26:45;;;;;;;9.20;8.40;;;26.00;40.80;;;;;;10556093;28;20230;-78
2022/06/05 15:31:54;;;;;;;8.17;7.53;;;25.90;41.50;;;;;;10558839;28;20226;-78
2022/06/05 15:37:08;;;;;;;7.83;7.23;;;25.80;41.40;;;;;;10549236;28;20718;-78
2022/06/05 15:42:22;;;;;;;7.30;6.80;;;25.60;41.70;;;;;;10558621;27;20219;-79
2022/06/05 15:47:45;;;;;;;6.77;6.10;;;25.40;42.20;;;;;;10563844;27;20229;-79
2022/06/05 15:53:08;;;;;;;5.97;5.47;;;25.00;42.60;;;;;;10518707;28;20235;-79
2022/06/05 15:58:38;;;;;;;4.10;3.80;;;24.70;42.80;;;;;;10543416;28;20294;-79
2022/06/05 16:03:48;;;;;;;3.00;2.80;;;24.40;42.20;;;;;;10515004;28;20298;-79
2022/06/05 16:09:03;;;;;;;3.43;2.50;;;24.10;43.20;;;;;;10555286;28;20223;-79
2022/06/05 16:14:20;;;;;;;3.33;2.27;;;23.80;42.70;;;;;;10551925;27;20227;-80
2022/06/05 16:19:30;;;;;;;2.00;1.90;;;23.50;43.70;;;;;;10559888;28;20313;-80
2022/06/05 16:24:47;;;;;;;3.33;1.80;;;23.30;43.00;;;;;;10549662;28;20229;-79
2022/06/05 16:29:51;;;;;;;3.00;1.73;;;23.10;43.80;;;;;;10556084;28;20214;-79
2022/06/05 16:40:25;;;;;;;3.87;1.47;;;22.80;43.40;;;;;;10551407;28;20878;-78
2022/06/05 16:45:31;;;;;;;1.90;1.80;;;22.80;44.40;;;;;;10511669;28;20237;-78
2022/06/05 16:50:37;;;;;;;1.97;1.30;;;22.60;43.90;;;;;;10509285;28;20672;-79
2022/06/05 16:56:06;;;;;;;1.60;1.50;;;22.50;44.10;;;;;;10509424;28;20302;-79
2022/06/05 17:01:29;;;;;;;2.03;1.73;;;22.40;44.20;;;;;;10559893;28;20231;-79
2022/06/05 17:06:38;;;;;;;2.40;1.50;;;22.30;44.70;;;;;;10552161;28;20230;-79
2022/06/05 17:11:48;;;;;;;2.00;1.80;;;22.30;44.70;;;;;;10551189;28;20229;-79
2022/06/05 17:17:11;;;;;;;4.60;1.70;;;22.30;44.70;;;;;;10556767;28;20721;-79
2022/06/05 17:22:21;;;;;;;2.63;1.43;;;22.40;44.80;;;;;;10546390;28;20258;-79
2022/06/05 17:27:57;;;;;;;2.83;1.60;;;22.50;45.10;;;;;;10552748;28;20219;-78
2022/06/05 17:33:08;;;;;;;2.87;1.90;;;22.50;44.40;;;;;;10553590;28;20229;-78
2022/06/05 17:38:44;;;;;;;2.30;1.73;;;22.60;44.40;;;;;;10554307;28;20570;-79
2022/06/05 17:43:56;;;;;;;3.87;1.70;;;22.60;44.20;;;;;;10552589;28;20230;-79
2022/06/05 17:49:24;;;;;;;4.53;1.43;;;22.60;44.00;;;;;;10517973;28;20228;-79
2022/06/05 17:54:30;;;;;;;2.83;1.57;;;22.60;44.20;;;;;;10556320;27;20229;-79
2022/06/05 17:59:37;;;;;;;1.87;1.30;;;22.60;43.80;;;;;;10562738;28;20227;-79
2022/06/05 18:04:40;;;;;;;1.93;1.70;;;22.60;44.20;;;;;;10560030;28;20223;-78
2022/06/05 18:09:54;;;;;;;1.83;1.57;;;22.70;43.80;;;;;;10562517;27;20654;-79
2022/06/05 18:15:01;;;;;;;2.40;1.80;;;22.70;44.40;;;;;;10562715;27;20284;-79
2022/06/05 18:20:07;;;;;;;1.97;1.57;;;22.70;44.00;;;;;;10552750;28;20234;-79
2022/06/05 18:25:33;;;;;;;2.77;1.80;;;22.70;43.80;;;;;;10564086;27;20219;-79
2022/06/05 18:30:44;;;;;;;2.20;1.60;;;22.70;43.90;;;;;;10554098;28;20228;-78
2022/06/05 18:41:14;;;;;;;1.60;1.50;;;22.60;43.60;;;;;;10563254;28;20269;-79
2022/06/05 18:46:23;;;;;;;3.43;2.00;;;22.50;43.80;;;;;;10563704;27;20251;-79
2022/06/05 18:51:31;;;;;;;2.37;1.73;;;22.50;44.20;;;;;;10528869;28;20309;-79
2022/06/05 18:56:38;;;;;;;3.23;1.67;;;22.40;44.00;;;;;;10526888;28;20234;-79
2022/06/05 19:01:49;;;;;;;4.17;1.90;;;22.30;44.10;;;;;;10531429;28;20222;-79
2022/06/05 19:07:08;;;;;;;3.53;1.80;;;22.10;44.70;;;;;;10511037;28;20580;-79
2022/06/05 19:12:17;;;;;;;2.23;1.70;;;22.00;45.50;;;;;;10512215;28;20315;-79
2022/06/05 19:17:26;;;;;;;2.10;1.90;;;21.80;44.80;;;;;;10518057;28;20228;-79
2022/06/05 19:22:34;;;;;;;3.73;2.37;;;21.70;45.10;;;;;;10518708;28;20235;-79
2022/06/05 19:27:44;;;;;;;3.20;2.13;;;21.60;45.10;;;;;;10518170;28;20588;-79
2022/06/05 19:32:51;;;;;;;2.30;1.83;;;21.50;45.00;;;;;;10514267;28;20593;-79
2022/06/05 19:38:23;;;;;;;4.50;2.20;;;21.40;45.60;;;;;;10522981;28;20693;-79
2022/06/05 19:43:32;;;;;;;4.30;2.20;;;21.30;45.30;;;;;;10557515;28;20221;-79
2022/06/05 19:48:38;;;;;;;6.73;2.27;;;21.10;45.70;;;;;;10552986;28;20230;-79
2022/06/05 19:53:48;;;;;;;3.93;2.17;;;20.90;46.20;;;;;;10559485;28;20227;-79
2022/06/05 19:58:56;;;;;;;6.43;2.13;;;20.80;46.90;;;;;;10559891;28;20659;-80
2022/06/05 20:04:10;;;;;;;3.60;2.30;;;20.70;47.00;;;;;;10560820;28;20238;-79
2022/06/05 20:09:25;;;;;;;2.50;1.80;;;20.60;47.30;;;;;;10553260;28;20220;-79
2022/06/05 20:14:29;;;;;;;5.20;2.40;;;20.60;47.40;;;;;;10558032;28;20235;-79
2022/06/05 20:19:40;;;;;;;3.27;2.07;;;20.60;46.60;;;;;;10557127;28;20771;-79
2022/06/05 20:24:47;;;;;;;3.40;2.13;;;20.70;47.70;;;;;;10531632;27;20238;-79
2022/06/05 20:29:55;;;;;;;3.13;2.00;;;20.70;47.20;;;;;;10518412;28;20228;-79
2022/06/05 20:34:59;;;;;;;2.43;2.10;;;20.70;47.30;;;;;;10512775;28;20224;-79
2022/06/05 20:40:07;;;;;;;2.90;1.93;;;20.70;46.80;;;;;;10562691;28;20218;-79
2022/06/05 20:45:19;;;;;;;3.27;1.90;;;20.70;47.90;;;;;;10554359;27;20296;-79
2022/06/05 20:50:26;;;;;;;5.93;2.60;;;20.60;47.60;;;;;;10555932;28;20235;-79
2022/06/05 20:55:30;;;;;;;3.73;2.30;;;20.60;47.70;;;;;;10520079;28;20315;-79
2022/06/05 21:00:39;;;;;;;2.20;2.00;;;20.50;46.60;;;;;;10514589;28;20224;-79
2022/06/05 21:21:54;;;;;;;5.93;2.47;;;20.40;47.70;;;;;;10508245;28;20239;-79
2022/06/05 21:27:02;;;;;;;3.10;2.10;;;20.40;47.50;;;;;;10518466;28;20258;-79
2022/06/05 21:32:08;;;;;;;4.87;2.53;;;20.30;47.90;;;;;;10559077;27;20230;-79
2022/06/05 21:37:13;;;;;;;2.67;1.90;;;20.30;47.60;;;;;;10561717;28;20223;-79
2022/06/05 21:42:19;;;;;;;4.63;2.70;;;20.20;47.50;;;;;;10565155;27;20231;-79
2022/06/05 21:47:23;;;;;;;5.70;2.43;;;20.20;47.70;;;;;;10560419;27;20604;-79
2022/06/05 21:52:37;;;;;;;3.27;2.57;;;20.20;47.10;;;;;;10568809;28;20283;-79
2022/06/05 21:57:44;;;;;;;3.57;2.27;;;20.20;48.40;;;;;;10565401;28;20231;-79
2022/06/05 22:02:47;;;;;;;3.67;2.33;;;20.10;48.00;;;;;;10565930;28;20219;-81
2022/06/05 22:07:52;;;;;;;2.70;2.50;;;20.20;47.30;;;;;;10562162;28;20224;-80
2022/06/05 22:12:55;;;;;;;2.83;2.30;;;20.20;47.70;;;;;;10559634;27;20635;-79
2022/06/05 22:17:59;;;;;;;4.27;2.10;;;20.20;47.10;;;;;;10563699;27;20223;-80
2022/06/05 22:23:05;;;;;;;2.67;2.33;;;20.20;47.10;;;;;;10521829;28;20228;-79
2022/06/05 22:28:09;;;;;;;3.77;2.17;;;20.20;47.70;;;;;;10521202;28;20224;-80
2022/06/05 22:33:13;;;;;;;3.77;2.50;;;20.20;47.40;;;;;;10515080;28;20228;-79
2022/06/05 22:38:17;;;;;;;3.40;2.30;;;20.30;47.20;;;;;;10513081;28;20227;-80
2022/06/05 22:43:20;;;;;;;4.10;2.23;;;20.30;47.40;;;;;;10516709;28;20220;-80
2022/06/05 22:48:24;;;;;;;2.10;1.90;;;20.30;46.90;;;;;;10521423;28;20824;-79
2022/06/05 22:53:31;;;;;;;3.77;2.30;;;20.30;46.90;;;;;;10514260;28;20234;-80
2022/06/05 22:58:35;;;;;;;3.13;2.27;;;20.20;47.40;;;;;;10517200;28;20224;-80
2022/06/05 23:03:38;;;;;;;2.90;2.00;;;20.20;46.80;;;;;;10519608;28;20226;-80
2022/06/05 23:08:43;;;;;;;2.67;2.00;;;20.20;46.80;;;;;;10518888;28;20241;-80
2022/06/05 23:13:50;;;;;;;3.57;2.30;;;20.10;47.00;;;;;;10513674;28;20220;-80
2022/06/05 23:24:16;;;;;;;1.77;1.60;;;20.10;46.80;;;;;;10555153;28;20224;-79
2022/06/05 23:29:19;;;;;;;3.57;1.80;;;20.00;46.80;;;;;;10570675;27;20843;-80
2022/06/05 23:34:24;;;;;;;2.57;1.67;;;20.00;46.50;;;;;;10569647;27;20227;-80
2022/06/05 23:39:29;;;;;;;2.17;1.80;;;20.00;46.70;;;;;;10561691;28;20732;-79
2022/06/05 23:44:32;;;;;;;1.80;1.70;;;19.90;46.90;;;;;;10563661;27;20227;-79
2022/06/05 23:49:36;;;;;;;2.10;1.90;;;19.80;46.60;;;;;;10561055;28;20221;-79
2022/06/05 23:54:41;;;;;;;3.23;1.70;;;19.80;46.80;;;;;;10564957;27;20324;-79
2022/06/05 23:59:44;;;;;;;2.77;2.03;;;19.80;46.90;;;;;;10561433;27;20253;-79
